BKBT2: Red River, Burkburnett

Data processed at Wed May 22 2019 23:50


All information presented herein is the property of the government of the United States of America and may be revised or deleted at any time without prior notice.
Dissemination of this information without the expressed written consent of the Public Affairs Office, Tulsa District U.S. Army Corps of Engineers is strictly prohibited.
These data are gathered electronically and, as presented, have not undergone any form of quality control. These data are not guaranteed to be valid or correct.
Go to home page.
Go to station list.
Go to home page.

Upstream stations:

Downstream station:
Previous Day
Next Day
Current Day
    
SHEF ID:       BKBT2     Red Rv nr Burkburnett, TX
STATION TYPE:  
Regulating: Stage =     9.00, Flow =    17010

               PRECIP     STAGE  RIV-FLOW  BAT-LOAD
                   in        ft       cfs      volt
              Ccp-Rev   Ccp-Rev   Ccp-Rev   Ccp-Rev
(US/Central)
05/22 00:00      0.00      8.45     13841     12.49
05/22 01:00      0.00      8.43     13735     12.49
05/22 02:00      0.00      8.44     13788     12.49
05/22 03:00      0.00      8.42     13682     12.49
05/22 04:00      0.00      8.45     13841     12.41
05/22 05:00      0.00      8.38     13471     12.41
05/22 06:00      0.00      8.36     13361     12.41
05/22 07:00      0.00      8.31     13088     12.41
05/22 08:00      0.00      8.23     12661     12.65
05/22 09:00      0.00      8.14     12192     13.21
05/22 10:00      0.00      8.11     12039     13.53
05/22 11:00      0.00      8.07     11837     13.44
05/22 12:00      0.00      7.99     11440     13.60
05/22 13:00      0.00      7.91     11054     13.76
05/22 14:00      0.00      7.83     10677     13.53
05/22 15:00      0.00      7.78     10446     13.84
05/22 16:00      0.00      7.75     10310     13.44
05/22 17:00      0.00      7.69     10041     13.53
05/22 18:00      0.00      7.64      9820     13.44
05/22 19:00      0.00      7.60      9647     13.13
05/22 20:00      0.33      7.58      9561     12.65
05/22 21:00      0.02      7.52      9306     12.57
05/22 22:00      0.00      7.50      9223     12.57
05/22 23:00      0.00      7.48      9139     12.49